sensor_id;sensor_type;location;lat;lon;timestamp;P1;durP1;ratioP1;P2;durP2;ratioP2
12707;SDS011;6418;50.824;4.718;2022-07-23T00:01:30;22.87;;;14.97;;
12707;SDS011;6418;50.824;4.718;2022-07-23T00:03:57;22.63;;;14.10;;
12707;SDS011;6418;50.824;4.718;2022-07-23T00:06:25;22.23;;;13.93;;
12707;SDS011;6418;50.824;4.718;2022-07-23T00:08:52;23.90;;;14.60;;
12707;SDS011;6418;50.824;4.718;2022-07-23T00:11:19;24.20;;;14.17;;
12707;SDS011;6418;50.824;4.718;2022-07-23T00:13:47;21.20;;;13.67;;
12707;SDS011;6418;50.824;4.718;2022-07-23T00:16:13;21.27;;;14.03;;
12707;SDS011;6418;50.824;4.718;2022-07-23T00:18:40;22.73;;;15.00;;
12707;SDS011;6418;50.824;4.718;2022-07-23T00:21:07;21.50;;;13.73;;
12707;SDS011;6418;50.824;4.718;2022-07-23T00:23:36;22.73;;;14.10;;
12707;SDS011;6418;50.824;4.718;2022-07-23T00:26:02;23.53;;;14.70;;
12707;SDS011;6418;50.824;4.718;2022-07-23T00:28:32;22.60;;;13.70;;
12707;SDS011;6418;50.824;4.718;2022-07-23T00:30:59;24.57;;;14.47;;
12707;SDS011;6418;50.824;4.718;2022-07-23T00:33:26;23.40;;;14.63;;
12707;SDS011;6418;50.824;4.718;2022-07-23T00:35:53;24.33;;;14.63;;
12707;SDS011;6418;50.824;4.718;2022-07-23T00:38:20;23.30;;;15.27;;
12707;SDS011;6418;50.824;4.718;2022-07-23T00:40:48;25.03;;;15.17;;
12707;SDS011;6418;50.824;4.718;2022-07-23T00:43:15;24.10;;;14.73;;
12707;SDS011;6418;50.824;4.718;2022-07-23T00:45:42;23.20;;;15.20;;
12707;SDS011;6418;50.824;4.718;2022-07-23T00:48:09;25.03;;;15.47;;
12707;SDS011;6418;50.824;4.718;2022-07-23T00:50:36;25.67;;;15.47;;
12707;SDS011;6418;50.824;4.718;2022-07-23T00:53:03;24.00;;;15.00;;
12707;SDS011;6418;50.824;4.718;2022-07-23T00:55:30;21.33;;;14.63;;
12707;SDS011;6418;50.824;4.718;2022-07-23T00:57:59;20.77;;;13.83;;
12707;SDS011;6418;50.824;4.718;2022-07-23T01:00:28;22.67;;;13.73;;
12707;SDS011;6418;50.824;4.718;2022-07-23T01:02:55;22.43;;;13.87;;
12707;SDS011;6418;50.824;4.718;2022-07-23T01:05:22;21.27;;;14.20;;
12707;SDS011;6418;50.824;4.718;2022-07-23T01:07:49;22.43;;;14.07;;
12707;SDS011;6418;50.824;4.718;2022-07-23T01:10:16;23.30;;;14.80;;
12707;SDS011;6418;50.824;4.718;2022-07-23T01:12:58;24.77;;;14.93;;
12707;SDS011;6418;50.824;4.718;2022-07-23T01:15:27;23.47;;;15.47;;
12707;SDS011;6418;50.824;4.718;2022-07-23T01:17:54;23.33;;;15.33;;
12707;SDS011;6418;50.824;4.718;2022-07-23T01:20:21;24.10;;;15.10;;
12707;SDS011;6418;50.824;4.718;2022-07-23T01:22:50;21.57;;;14.07;;
12707;SDS011;6418;50.824;4.718;2022-07-23T01:25:17;22.57;;;13.97;;
12707;SDS011;6418;50.824;4.718;2022-07-23T01:27:44;21.80;;;14.33;;
12707;SDS011;6418;50.824;4.718;2022-07-23T01:30:11;25.60;;;14.57;;
12707;SDS011;6418;50.824;4.718;2022-07-23T01:32:38;24.93;;;14.40;;
12707;SDS011;6418;50.824;4.718;2022-07-23T01:35:06;25.00;;;15.00;;
12707;SDS011;6418;50.824;4.718;2022-07-23T01:37:34;24.40;;;15.40;;
12707;SDS011;6418;50.824;4.718;2022-07-23T01:40:03;24.67;;;15.20;;
12707;SDS011;6418;50.824;4.718;2022-07-23T01:42:30;21.97;;;14.53;;
12707;SDS011;6418;50.824;4.718;2022-07-23T01:44:57;25.17;;;14.93;;
12707;SDS011;6418;50.824;4.718;2022-07-23T01:47:25;24.30;;;14.73;;
12707;SDS011;6418;50.824;4.718;2022-07-23T01:49:52;23.60;;;14.53;;
12707;SDS011;6418;50.824;4.718;2022-07-23T01:52:19;23.63;;;14.47;;
12707;SDS011;6418;50.824;4.718;2022-07-23T01:54:46;22.73;;;14.63;;
12707;SDS011;6418;50.824;4.718;2022-07-23T01:57:14;26.80;;;15.10;;
12707;SDS011;6418;50.824;4.718;2022-07-23T01:59:41;24.50;;;15.17;;
12707;SDS011;6418;50.824;4.718;2022-07-23T02:02:08;26.43;;;14.70;;
12707;SDS011;6418;50.824;4.718;2022-07-23T02:04:35;25.13;;;15.07;;
12707;SDS011;6418;50.824;4.718;2022-07-23T02:07:02;24.17;;;15.07;;
12707;SDS011;6418;50.824;4.718;2022-07-23T02:09:29;23.20;;;15.63;;
12707;SDS011;6418;50.824;4.718;2022-07-23T02:11:56;26.37;;;16.03;;
12707;SDS011;6418;50.824;4.718;2022-07-23T02:14:25;25.77;;;17.10;;
12707;SDS011;6418;50.824;4.718;2022-07-23T02:16:52;22.20;;;14.80;;
12707;SDS011;6418;50.824;4.718;2022-07-23T02:19:19;25.57;;;15.07;;
12707;SDS011;6418;50.824;4.718;2022-07-23T02:21:46;24.20;;;14.43;;
12707;SDS011;6418;50.824;4.718;2022-07-23T02:24:13;25.57;;;14.20;;
12707;SDS011;6418;50.824;4.718;2022-07-23T02:26:40;23.23;;;14.80;;
12707;SDS011;6418;50.824;4.718;2022-07-23T02:29:07;24.03;;;14.83;;
12707;SDS011;6418;50.824;4.718;2022-07-23T02:31:35;21.07;;;14.97;;
12707;SDS011;6418;50.824;4.718;2022-07-23T02:34:02;24.50;;;14.30;;
12707;SDS011;6418;50.824;4.718;2022-07-23T02:36:29;21.53;;;14.07;;
12707;SDS011;6418;50.824;4.718;2022-07-23T02:38:56;20.73;;;13.57;;
12707;SDS011;6418;50.824;4.718;2022-07-23T02:41:23;26.13;;;15.17;;
12707;SDS011;6418;50.824;4.718;2022-07-23T02:43:50;28.33;;;16.23;;
12707;SDS011;6418;50.824;4.718;2022-07-23T02:46:17;26.33;;;16.40;;
12707;SDS011;6418;50.824;4.718;2022-07-23T02:48:46;48.90;;;20.13;;
12707;SDS011;6418;50.824;4.718;2022-07-23T02:51:13;34.77;;;18.00;;
12707;SDS011;6418;50.824;4.718;2022-07-23T02:53:40;33.87;;;19.17;;
12707;SDS011;6418;50.824;4.718;2022-07-23T02:56:07;32.63;;;18.80;;
12707;SDS011;6418;50.824;4.718;2022-07-23T02:58:35;30.67;;;17.17;;
12707;SDS011;6418;50.824;4.718;2022-07-23T03:01:02;28.90;;;17.27;;
12707;SDS011;6418;50.824;4.718;2022-07-23T03:03:29;24.73;;;15.53;;
12707;SDS011;6418;50.824;4.718;2022-07-23T03:05:57;24.10;;;15.27;;
12707;SDS011;6418;50.824;4.718;2022-07-23T03:08:24;25.83;;;15.17;;
12707;SDS011;6418;50.824;4.718;2022-07-23T03:10:51;23.20;;;13.97;;
12707;SDS011;6418;50.824;4.718;2022-07-23T03:13:18;23.50;;;14.23;;
12707;SDS011;6418;50.824;4.718;2022-07-23T03:15:45;24.53;;;15.23;;
12707;SDS011;6418;50.824;4.718;2022-07-23T03:18:12;23.77;;;15.03;;
12707;SDS011;6418;50.824;4.718;2022-07-23T03:20:39;22.50;;;15.20;;
12707;SDS011;6418;50.824;4.718;2022-07-23T03:23:08;22.27;;;13.83;;
12707;SDS011;6418;50.824;4.718;2022-07-23T03:25:34;30.90;;;17.27;;
12707;SDS011;6418;50.824;4.718;2022-07-23T03:28:01;25.60;;;16.33;;
12707;SDS011;6418;50.824;4.718;2022-07-23T03:30:28;30.47;;;16.77;;
12707;SDS011;6418;50.824;4.718;2022-07-23T03:32:55;30.60;;;18.00;;
12707;SDS011;6418;50.824;4.718;2022-07-23T03:35:22;28.03;;;16.43;;
12707;SDS011;6418;50.824;4.718;2022-07-23T03:37:49;26.87;;;16.60;;
12707;SDS011;6418;50.824;4.718;2022-07-23T03:40:17;31.03;;;18.23;;
12707;SDS011;6418;50.824;4.718;2022-07-23T03:42:44;29.80;;;17.47;;
12707;SDS011;6418;50.824;4.718;2022-07-23T03:45:11;29.87;;;17.13;;
12707;SDS011;6418;50.824;4.718;2022-07-23T03:47:38;28.83;;;17.57;;
12707;SDS011;6418;50.824;4.718;2022-07-23T03:50:06;31.83;;;17.60;;
12707;SDS011;6418;50.824;4.718;2022-07-23T03:52:33;30.40;;;17.77;;
12707;SDS011;6418;50.824;4.718;2022-07-23T03:55:00;28.67;;;17.83;;
12707;SDS011;6418;50.824;4.718;2022-07-23T03:57:29;28.20;;;17.80;;
12707;SDS011;6418;50.824;4.718;2022-07-23T03:59:56;26.33;;;16.70;;
12707;SDS011;6418;50.824;4.718;2022-07-23T04:02:23;26.30;;;16.93;;
12707;SDS011;6418;50.824;4.718;2022-07-23T04:04:50;26.57;;;17.03;;
12707;SDS011;6418;50.824;4.718;2022-07-23T04:07:17;28.17;;;16.33;;
12707;SDS011;6418;50.824;4.718;2022-07-23T04:09:44;25.10;;;16.17;;
12707;SDS011;6418;50.824;4.718;2022-07-23T04:12:11;28.10;;;16.63;;
12707;SDS011;6418;50.824;4.718;2022-07-23T04:14:39;25.67;;;16.47;;
12707;SDS011;6418;50.824;4.718;2022-07-23T04:17:06;24.67;;;15.80;;
12707;SDS011;6418;50.824;4.718;2022-07-23T04:19:33;24.53;;;16.37;;
12707;SDS011;6418;50.824;4.718;2022-07-23T04:22:04;24.63;;;16.77;;
12707;SDS011;6418;50.824;4.718;2022-07-23T04:24:31;23.73;;;15.73;;
12707;SDS011;6418;50.824;4.718;2022-07-23T04:26:58;24.60;;;16.50;;
12707;SDS011;6418;50.824;4.718;2022-07-23T04:29:25;24.50;;;16.47;;
12707;SDS011;6418;50.824;4.718;2022-07-23T04:31:53;24.83;;;16.03;;
12707;SDS011;6418;50.824;4.718;2022-07-23T04:34:20;25.97;;;16.73;;
12707;SDS011;6418;50.824;4.718;2022-07-23T04:36:47;26.77;;;16.27;;
12707;SDS011;6418;50.824;4.718;2022-07-23T04:39:14;27.67;;;16.33;;
12707;SDS011;6418;50.824;4.718;2022-07-23T04:41:41;24.33;;;16.00;;
12707;SDS011;6418;50.824;4.718;2022-07-23T04:44:08;30.30;;;18.03;;
12707;SDS011;6418;50.824;4.718;2022-07-23T04:46:35;26.70;;;17.03;;
12707;SDS011;6418;50.824;4.718;2022-07-23T04:49:03;25.53;;;16.27;;
12707;SDS011;6418;50.824;4.718;2022-07-23T04:51:30;31.23;;;17.37;;
12707;SDS011;6418;50.824;4.718;2022-07-23T04:53:57;29.87;;;17.83;;
12707;SDS011;6418;50.824;4.718;2022-07-23T04:56:24;24.13;;;15.93;;
12707;SDS011;6418;50.824;4.718;2022-07-23T04:58:51;23.80;;;16.10;;
12707;SDS011;6418;50.824;4.718;2022-07-23T05:01:17;25.23;;;16.60;;
12707;SDS011;6418;50.824;4.718;2022-07-23T05:03:44;25.03;;;16.47;;
12707;SDS011;6418;50.824;4.718;2022-07-23T05:06:14;24.63;;;16.93;;
12707;SDS011;6418;50.824;4.718;2022-07-23T05:08:42;26.37;;;17.33;;
12707;SDS011;6418;50.824;4.718;2022-07-23T05:11:09;28.37;;;16.97;;
12707;SDS011;6418;50.824;4.718;2022-07-23T05:13:35;26.07;;;17.67;;
12707;SDS011;6418;50.824;4.718;2022-07-23T05:16:02;26.27;;;18.40;;
12707;SDS011;6418;50.824;4.718;2022-07-23T05:18:30;28.03;;;18.47;;
12707;SDS011;6418;50.824;4.718;2022-07-23T05:20:57;29.57;;;19.27;;
12707;SDS011;6418;50.824;4.718;2022-07-23T05:23:25;32.60;;;19.70;;
12707;SDS011;6418;50.824;4.718;2022-07-23T05:25:52;33.40;;;20.80;;
12707;SDS011;6418;50.824;4.718;2022-07-23T05:28:19;33.90;;;22.17;;
12707;SDS011;6418;50.824;4.718;2022-07-23T05:30:46;34.80;;;23.47;;
12707;SDS011;6418;50.824;4.718;2022-07-23T05:33:12;42.33;;;26.17;;
12707;SDS011;6418;50.824;4.718;2022-07-23T05:35:39;44.83;;;28.37;;
12707;SDS011;6418;50.824;4.718;2022-07-23T05:38:06;40.60;;;26.83;;
12707;SDS011;6418;50.824;4.718;2022-07-23T05:40:34;39.60;;;25.90;;
12707;SDS011;6418;50.824;4.718;2022-07-23T05:43:01;40.43;;;26.43;;
12707;SDS011;6418;50.824;4.718;2022-07-23T05:45:28;43.73;;;28.53;;
12707;SDS011;6418;50.824;4.718;2022-07-23T05:47:55;43.03;;;26.97;;
12707;SDS011;6418;50.824;4.718;2022-07-23T05:50:22;40.50;;;27.93;;
12707;SDS011;6418;50.824;4.718;2022-07-23T05:52:49;38.80;;;27.73;;
12707;SDS011;6418;50.824;4.718;2022-07-23T05:55:16;37.60;;;25.87;;
12707;SDS011;6418;50.824;4.718;2022-07-23T05:57:44;39.77;;;27.67;;
12707;SDS011;6418;50.824;4.718;2022-07-23T06:00:12;34.77;;;25.57;;
12707;SDS011;6418;50.824;4.718;2022-07-23T06:02:39;36.27;;;25.03;;
12707;SDS011;6418;50.824;4.718;2022-07-23T06:05:06;35.50;;;25.30;;
12707;SDS011;6418;50.824;4.718;2022-07-23T06:07:34;36.97;;;25.50;;
12707;SDS011;6418;50.824;4.718;2022-07-23T06:10:02;40.13;;;26.73;;
12707;SDS011;6418;50.824;4.718;2022-07-23T06:12:29;38.37;;;26.00;;
12707;SDS011;6418;50.824;4.718;2022-07-23T06:14:57;36.83;;;25.20;;
12707;SDS011;6418;50.824;4.718;2022-07-23T06:17:24;37.37;;;26.37;;
12707;SDS011;6418;50.824;4.718;2022-07-23T06:19:52;37.40;;;24.77;;
12707;SDS011;6418;50.824;4.718;2022-07-23T06:22:19;35.57;;;25.00;;
12707;SDS011;6418;50.824;4.718;2022-07-23T06:24:46;34.27;;;24.00;;
12707;SDS011;6418;50.824;4.718;2022-07-23T06:27:14;34.43;;;23.27;;
12707;SDS011;6418;50.824;4.718;2022-07-23T06:29:41;31.43;;;21.00;;
12707;SDS011;6418;50.824;4.718;2022-07-23T06:32:09;33.73;;;22.17;;
12707;SDS011;6418;50.824;4.718;2022-07-23T06:34:36;29.80;;;21.90;;
12707;SDS011;6418;50.824;4.718;2022-07-23T06:37:03;34.23;;;23.27;;
12707;SDS011;6418;50.824;4.718;2022-07-23T06:39:30;30.37;;;22.13;;
12707;SDS011;6418;50.824;4.718;2022-07-23T06:41:57;28.93;;;20.50;;
12707;SDS011;6418;50.824;4.718;2022-07-23T06:44:24;31.70;;;21.80;;
12707;SDS011;6418;50.824;4.718;2022-07-23T06:46:51;29.30;;;21.17;;
12707;SDS011;6418;50.824;4.718;2022-07-23T06:49:19;29.13;;;20.70;;
12707;SDS011;6418;50.824;4.718;2022-07-23T06:51:46;29.50;;;20.70;;
12707;SDS011;6418;50.824;4.718;2022-07-23T06:54:13;30.00;;;20.57;;
12707;SDS011;6418;50.824;4.718;2022-07-23T06:56:40;29.53;;;20.37;;
12707;SDS011;6418;50.824;4.718;2022-07-23T06:59:08;27.93;;;19.67;;
12707;SDS011;6418;50.824;4.718;2022-07-23T07:01:35;26.80;;;19.70;;
12707;SDS011;6418;50.824;4.718;2022-07-23T07:04:02;31.13;;;20.83;;
12707;SDS011;6418;50.824;4.718;2022-07-23T07:06:30;28.17;;;19.50;;
12707;SDS011;6418;50.824;4.718;2022-07-23T07:08:57;25.67;;;19.10;;
12707;SDS011;6418;50.824;4.718;2022-07-23T07:11:24;28.23;;;20.00;;
12707;SDS011;6418;50.824;4.718;2022-07-23T07:13:51;29.03;;;18.67;;
12707;SDS011;6418;50.824;4.718;2022-07-23T07:16:18;30.97;;;19.67;;
12707;SDS011;6418;50.824;4.718;2022-07-23T07:18:45;25.50;;;17.87;;
12707;SDS011;6418;50.824;4.718;2022-07-23T07:21:12;28.90;;;19.80;;
12707;SDS011;6418;50.824;4.718;2022-07-23T07:23:40;27.87;;;19.83;;
12707;SDS011;6418;50.824;4.718;2022-07-23T07:26:07;28.53;;;19.90;;
12707;SDS011;6418;50.824;4.718;2022-07-23T07:28:34;29.47;;;19.77;;
12707;SDS011;6418;50.824;4.718;2022-07-23T07:31:01;26.90;;;19.27;;
12707;SDS011;6418;50.824;4.718;2022-07-23T07:33:28;28.97;;;20.20;;
12707;SDS011;6418;50.824;4.718;2022-07-23T07:35:55;27.13;;;18.50;;
12707;SDS011;6418;50.824;4.718;2022-07-23T07:38:22;26.40;;;19.20;;
12707;SDS011;6418;50.824;4.718;2022-07-23T07:40:50;27.70;;;18.37;;
12707;SDS011;6418;50.824;4.718;2022-07-23T07:43:17;24.53;;;18.30;;
12707;SDS011;6418;50.824;4.718;2022-07-23T07:45:44;26.07;;;17.57;;
12707;SDS011;6418;50.824;4.718;2022-07-23T07:48:11;26.40;;;18.40;;
12707;SDS011;6418;50.824;4.718;2022-07-23T07:50:38;26.93;;;17.90;;
12707;SDS011;6418;50.824;4.718;2022-07-23T07:53:05;24.97;;;17.17;;
12707;SDS011;6418;50.824;4.718;2022-07-23T07:55:32;27.00;;;17.40;;
12707;SDS011;6418;50.824;4.718;2022-07-23T07:58:00;28.07;;;18.43;;
12707;SDS011;6418;50.824;4.718;2022-07-23T08:00:27;24.00;;;16.20;;
12707;SDS011;6418;50.824;4.718;2022-07-23T08:02:54;22.47;;;16.07;;
12707;SDS011;6418;50.824;4.718;2022-07-23T08:05:22;31.10;;;16.97;;
12707;SDS011;6418;50.824;4.718;2022-07-23T08:07:50;25.03;;;17.27;;
12707;SDS011;6418;50.824;4.718;2022-07-23T08:10:18;25.80;;;16.67;;
12707;SDS011;6418;50.824;4.718;2022-07-23T08:12:46;21.73;;;15.70;;
12707;SDS011;6418;50.824;4.718;2022-07-23T08:15:16;26.83;;;15.43;;
12707;SDS011;6418;50.824;4.718;2022-07-23T08:17:45;21.70;;;15.23;;
12707;SDS011;6418;50.824;4.718;2022-07-23T08:20:13;21.50;;;15.67;;
12707;SDS011;6418;50.824;4.718;2022-07-23T08:22:41;22.90;;;14.10;;
12707;SDS011;6418;50.824;4.718;2022-07-23T08:25:09;20.90;;;12.67;;
12707;SDS011;6418;50.824;4.718;2022-07-23T08:27:36;19.90;;;13.30;;
12707;SDS011;6418;50.824;4.718;2022-07-23T08:30:04;21.17;;;13.67;;
12707;SDS011;6418;50.824;4.718;2022-07-23T08:32:33;20.63;;;13.13;;
12707;SDS011;6418;50.824;4.718;2022-07-23T08:35:00;21.93;;;12.67;;
12707;SDS011;6418;50.824;4.718;2022-07-23T08:37:27;19.53;;;12.90;;
12707;SDS011;6418;50.824;4.718;2022-07-23T08:39:54;22.03;;;13.73;;
12707;SDS011;6418;50.824;4.718;2022-07-23T08:42:21;23.83;;;13.30;;
12707;SDS011;6418;50.824;4.718;2022-07-23T08:44:48;20.27;;;11.83;;
12707;SDS011;6418;50.824;4.718;2022-07-23T08:47:15;20.93;;;12.60;;
12707;SDS011;6418;50.824;4.718;2022-07-23T08:49:44;22.13;;;12.77;;
12707;SDS011;6418;50.824;4.718;2022-07-23T08:52:12;22.30;;;12.97;;
12707;SDS011;6418;50.824;4.718;2022-07-23T08:54:41;19.37;;;12.10;;
12707;SDS011;6418;50.824;4.718;2022-07-23T08:57:07;18.80;;;11.97;;
12707;SDS011;6418;50.824;4.718;2022-07-23T08:59:34;20.27;;;12.10;;
12707;SDS011;6418;50.824;4.718;2022-07-23T09:02:01;18.43;;;11.57;;
12707;SDS011;6418;50.824;4.718;2022-07-23T09:04:28;20.20;;;11.40;;
12707;SDS011;6418;50.824;4.718;2022-07-23T09:06:58;17.07;;;10.17;;
12707;SDS011;6418;50.824;4.718;2022-07-23T09:09:27;16.00;;;10.57;;
12707;SDS011;6418;50.824;4.718;2022-07-23T09:12:02;17.80;;;10.17;;
12707;SDS011;6418;50.824;4.718;2022-07-23T09:14:38;17.50;;;9.90;;
12707;SDS011;6418;50.824;4.718;2022-07-23T09:17:10;18.33;;;9.43;;
12707;SDS011;6418;50.824;4.718;2022-07-23T09:19:38;15.80;;;9.93;;
12707;SDS011;6418;50.824;4.718;2022-07-23T09:22:20;18.73;;;10.60;;
12707;SDS011;6418;50.824;4.718;2022-07-23T09:25:03;17.80;;;8.90;;
12707;SDS011;6418;50.824;4.718;2022-07-23T09:27:45;16.73;;;9.57;;
12707;SDS011;6418;50.824;4.718;2022-07-23T09:30:13;16.10;;;9.20;;
12707;SDS011;6418;50.824;4.718;2022-07-23T09:32:40;15.40;;;8.83;;
12707;SDS011;6418;50.824;4.718;2022-07-23T09:35:08;19.70;;;8.07;;
12707;SDS011;6418;50.824;4.718;2022-07-23T09:37:37;15.63;;;8.80;;
12707;SDS011;6418;50.824;4.718;2022-07-23T09:40:04;15.20;;;7.40;;
12707;SDS011;6418;50.824;4.718;2022-07-23T09:42:32;14.97;;;8.07;;
12707;SDS011;6418;50.824;4.718;2022-07-23T09:44:59;17.13;;;9.07;;
12707;SDS011;6418;50.824;4.718;2022-07-23T09:47:27;15.90;;;8.67;;
12707;SDS011;6418;50.824;4.718;2022-07-23T09:49:59;15.30;;;8.17;;
12707;SDS011;6418;50.824;4.718;2022-07-23T09:52:29;14.32;;;8.10;;
12707;SDS011;6418;50.824;4.718;2022-07-23T09:55:00;14.23;;;8.02;;
12707;SDS011;6418;50.824;4.718;2022-07-23T09:57:28;15.20;;;8.20;;
12707;SDS011;6418;50.824;4.718;2022-07-23T09:59:57;13.30;;;7.32;;
12707;SDS011;6418;50.824;4.718;2022-07-23T10:02:26;16.15;;;8.80;;
12707;SDS011;6418;50.824;4.718;2022-07-23T10:04:58;16.53;;;8.87;;
12707;SDS011;6418;50.824;4.718;2022-07-23T10:07:27;13.97;;;7.70;;
12707;SDS011;6418;50.824;4.718;2022-07-23T10:10:00;19.15;;;7.93;;
12707;SDS011;6418;50.824;4.718;2022-07-23T10:12:28;13.95;;;7.70;;
12707;SDS011;6418;50.824;4.718;2022-07-23T10:15:23;13.40;;;7.10;;
12707;SDS011;6418;50.824;4.718;2022-07-23T10:17:51;11.63;;;6.75;;
12707;SDS011;6418;50.824;4.718;2022-07-23T10:20:18;11.55;;;6.85;;
12707;SDS011;6418;50.824;4.718;2022-07-23T10:22:47;12.73;;;6.38;;
12707;SDS011;6418;50.824;4.718;2022-07-23T10:25:29;12.23;;;6.25;;
12707;SDS011;6418;50.824;4.718;2022-07-23T10:28:08;12.77;;;5.57;;
12707;SDS011;6418;50.824;4.718;2022-07-23T10:30:50;12.20;;;5.90;;
12707;SDS011;6418;50.824;4.718;2022-07-23T10:33:28;10.27;;;5.65;;
12707;SDS011;6418;50.824;4.718;2022-07-23T10:36:01;12.05;;;5.57;;
12707;SDS011;6418;50.824;4.718;2022-07-23T10:38:35;10.05;;;5.40;;
12707;SDS011;6418;50.824;4.718;2022-07-23T10:41:10;9.82;;;5.15;;
12707;SDS011;6418;50.824;4.718;2022-07-23T10:43:37;11.95;;;5.55;;
12707;SDS011;6418;50.824;4.718;2022-07-23T10:49:20;11.52;;;5.10;;
12707;SDS011;6418;50.824;4.718;2022-07-23T10:54:47;9.13;;;5.13;;
12707;SDS011;6418;50.824;4.718;2022-07-23T10:57:17;11.57;;;5.13;;
12707;SDS011;6418;50.824;4.718;2022-07-23T11:02:38;10.05;;;4.90;;
12707;SDS011;6418;50.824;4.718;2022-07-23T11:05:07;10.90;;;4.93;;
12707;SDS011;6418;50.824;4.718;2022-07-23T11:07:35;9.50;;;5.55;;
12707;SDS011;6418;50.824;4.718;2022-07-23T11:10:03;9.68;;;5.28;;
12707;SDS011;6418;50.824;4.718;2022-07-23T11:12:32;8.75;;;5.00;;
12707;SDS011;6418;50.824;4.718;2022-07-23T11:15:02;9.98;;;4.75;;
12707;SDS011;6418;50.824;4.718;2022-07-23T11:17:32;7.70;;;4.57;;
12707;SDS011;6418;50.824;4.718;2022-07-23T11:20:12;9.68;;;5.25;;
12707;SDS011;6418;50.824;4.718;2022-07-23T11:22:46;10.18;;;5.03;;
12707;SDS011;6418;50.824;4.718;2022-07-23T11:25:31;10.27;;;4.63;;
12707;SDS011;6418;50.824;4.718;2022-07-23T11:28:09;7.07;;;4.05;;
12707;SDS011;6418;50.824;4.718;2022-07-23T11:30:39;8.07;;;4.68;;
12707;SDS011;6418;50.824;4.718;2022-07-23T11:33:17;8.40;;;4.55;;
12707;SDS011;6418;50.824;4.718;2022-07-23T11:35:46;7.20;;;4.60;;
12707;SDS011;6418;50.824;4.718;2022-07-23T11:38:16;9.45;;;4.68;;
12707;SDS011;6418;50.824;4.718;2022-07-23T11:40:44;8.43;;;4.30;;
12707;SDS011;6418;50.824;4.718;2022-07-23T11:43:14;9.30;;;4.45;;
12707;SDS011;6418;50.824;4.718;2022-07-23T11:45:42;9.10;;;4.47;;
12707;SDS011;6418;50.824;4.718;2022-07-23T11:48:15;7.25;;;4.20;;
12707;SDS011;6418;50.824;4.718;2022-07-23T11:50:43;10.55;;;4.68;;
12707;SDS011;6418;50.824;4.718;2022-07-23T11:53:10;7.68;;;4.57;;
12707;SDS011;6418;50.824;4.718;2022-07-23T11:55:37;8.85;;;4.55;;
12707;SDS011;6418;50.824;4.718;2022-07-23T11:58:04;6.80;;;4.30;;
12707;SDS011;6418;50.824;4.718;2022-07-23T12:00:32;8.32;;;4.63;;
12707;SDS011;6418;50.824;4.718;2022-07-23T12:03:00;7.28;;;4.53;;
12707;SDS011;6418;50.824;4.718;2022-07-23T12:05:31;9.23;;;4.63;;
12707;SDS011;6418;50.824;4.718;2022-07-23T12:08:00;9.02;;;4.18;;
12707;SDS011;6418;50.824;4.718;2022-07-23T12:10:30;9.27;;;4.28;;
12707;SDS011;6418;50.824;4.718;2022-07-23T12:13:01;8.10;;;4.40;;
12707;SDS011;6418;50.824;4.718;2022-07-23T12:15:30;9.82;;;4.35;;
12707;SDS011;6418;50.824;4.718;2022-07-23T12:18:03;7.60;;;4.30;;
12707;SDS011;6418;50.824;4.718;2022-07-23T12:20:30;9.55;;;4.90;;
12707;SDS011;6418;50.824;4.718;2022-07-23T12:22:59;7.63;;;4.50;;
12707;SDS011;6418;50.824;4.718;2022-07-23T12:25:28;7.90;;;4.15;;
12707;SDS011;6418;50.824;4.718;2022-07-23T12:27:58;7.50;;;4.13;;
12707;SDS011;6418;50.824;4.718;2022-07-23T12:30:28;8.02;;;4.10;;
12707;SDS011;6418;50.824;4.718;2022-07-23T12:32:58;9.23;;;4.82;;
12707;SDS011;6418;50.824;4.718;2022-07-23T12:35:30;9.43;;;4.40;;
12707;SDS011;6418;50.824;4.718;2022-07-23T12:38:00;7.00;;;4.57;;
12707;SDS011;6418;50.824;4.718;2022-07-23T12:40:29;8.20;;;4.28;;
12707;SDS011;6418;50.824;4.718;2022-07-23T12:42:58;9.25;;;5.00;;
12707;SDS011;6418;50.824;4.718;2022-07-23T12:45:41;8.50;;;4.57;;
12707;SDS011;6418;50.824;4.718;2022-07-23T12:48:16;8.48;;;4.82;;
12707;SDS011;6418;50.824;4.718;2022-07-23T12:50:48;7.78;;;4.78;;
12707;SDS011;6418;50.824;4.718;2022-07-23T12:53:23;10.35;;;5.32;;
12707;SDS011;6418;50.824;4.718;2022-07-23T12:55:57;8.95;;;4.57;;
12707;SDS011;6418;50.824;4.718;2022-07-23T12:58:25;7.20;;;4.63;;
12707;SDS011;6418;50.824;4.718;2022-07-23T13:01:01;8.55;;;4.80;;
12707;SDS011;6418;50.824;4.718;2022-07-23T13:03:36;10.82;;;4.50;;
12707;SDS011;6418;50.824;4.718;2022-07-23T13:06:06;6.40;;;4.53;;
12707;SDS011;6418;50.824;4.718;2022-07-23T13:08:35;6.90;;;4.47;;
12707;SDS011;6418;50.824;4.718;2022-07-23T13:11:03;7.85;;;4.60;;
12707;SDS011;6418;50.824;4.718;2022-07-23T13:13:31;6.80;;;4.55;;
12707;SDS011;6418;50.824;4.718;2022-07-23T13:15:59;9.32;;;4.65;;
12707;SDS011;6418;50.824;4.718;2022-07-23T13:18:27;11.88;;;5.25;;
12707;SDS011;6418;50.824;4.718;2022-07-23T13:20:56;9.48;;;4.78;;
12707;SDS011;6418;50.824;4.718;2022-07-23T13:23:23;6.70;;;4.50;;
12707;SDS011;6418;50.824;4.718;2022-07-23T13:25:50;7.00;;;4.38;;
12707;SDS011;6418;50.824;4.718;2022-07-23T13:28:18;7.90;;;4.63;;
12707;SDS011;6418;50.824;4.718;2022-07-23T13:30:46;8.98;;;4.72;;
12707;SDS011;6418;50.824;4.718;2022-07-23T13:33:15;7.18;;;4.57;;
12707;SDS011;6418;50.824;4.718;2022-07-23T13:35:43;8.20;;;4.80;;
12707;SDS011;6418;50.824;4.718;2022-07-23T13:38:12;7.82;;;4.55;;
12707;SDS011;6418;50.824;4.718;2022-07-23T13:40:40;8.35;;;4.53;;
12707;SDS011;6418;50.824;4.718;2022-07-23T13:43:08;8.20;;;4.47;;
12707;SDS011;6418;50.824;4.718;2022-07-23T13:45:37;10.60;;;4.70;;
12707;SDS011;6418;50.824;4.718;2022-07-23T13:48:05;8.77;;;4.70;;
12707;SDS011;6418;50.824;4.718;2022-07-23T13:50:32;7.07;;;4.40;;
12707;SDS011;6418;50.824;4.718;2022-07-23T13:53:01;7.93;;;4.68;;
12707;SDS011;6418;50.824;4.718;2022-07-23T13:55:30;8.82;;;4.75;;
12707;SDS011;6418;50.824;4.718;2022-07-23T13:57:58;8.48;;;4.80;;
12707;SDS011;6418;50.824;4.718;2022-07-23T14:00:26;6.45;;;4.30;;
12707;SDS011;6418;50.824;4.718;2022-07-23T14:02:54;9.70;;;5.00;;
12707;SDS011;6418;50.824;4.718;2022-07-23T14:05:20;8.02;;;4.60;;
12707;SDS011;6418;50.824;4.718;2022-07-23T14:07:47;9.57;;;4.63;;
12707;SDS011;6418;50.824;4.718;2022-07-23T14:10:16;8.60;;;4.72;;
12707;SDS011;6418;50.824;4.718;2022-07-23T14:12:45;9.70;;;4.88;;
12707;SDS011;6418;50.824;4.718;2022-07-23T14:15:13;8.38;;;4.82;;
12707;SDS011;6418;50.824;4.718;2022-07-23T14:17:41;9.13;;;5.05;;
12707;SDS011;6418;50.824;4.718;2022-07-23T14:20:10;12.90;;;5.38;;
12707;SDS011;6418;50.824;4.718;2022-07-23T14:22:38;10.60;;;5.18;;
12707;SDS011;6418;50.824;4.718;2022-07-23T14:25:06;7.50;;;4.78;;
12707;SDS011;6418;50.824;4.718;2022-07-23T14:27:34;9.65;;;5.10;;
12707;SDS011;6418;50.824;4.718;2022-07-23T14:30:04;8.77;;;5.00;;
12707;SDS011;6418;50.824;4.718;2022-07-23T14:32:32;8.57;;;5.07;;
12707;SDS011;6418;50.824;4.718;2022-07-23T14:34:59;8.07;;;5.03;;
12707;SDS011;6418;50.824;4.718;2022-07-23T14:37:26;10.13;;;5.07;;
12707;SDS011;6418;50.824;4.718;2022-07-23T14:39:53;8.32;;;4.53;;
12707;SDS011;6418;50.824;4.718;2022-07-23T14:42:20;10.18;;;4.90;;
12707;SDS011;6418;50.824;4.718;2022-07-23T14:44:47;8.52;;;4.80;;
12707;SDS011;6418;50.824;4.718;2022-07-23T14:47:15;8.07;;;5.10;;
12707;SDS011;6418;50.824;4.718;2022-07-23T14:49:42;9.75;;;5.55;;
12707;SDS011;6418;50.824;4.718;2022-07-23T14:52:09;11.38;;;5.85;;
12707;SDS011;6418;50.824;4.718;2022-07-23T14:54:36;9.40;;;5.30;;
12707;SDS011;6418;50.824;4.718;2022-07-23T14:57:03;10.57;;;5.50;;
12707;SDS011;6418;50.824;4.718;2022-07-23T14:59:32;11.32;;;5.30;;